createdAt,value
2022-09-23T00:02:18.090Z,101345.59
2022-09-23T00:04:46.908Z,101349.72
2022-09-23T00:07:15.095Z,101342.97
2022-09-23T00:09:43.382Z,101353.19
2022-09-23T00:12:11.736Z,101355.19
2022-09-23T00:14:40.898Z,101355.03
2022-09-23T00:17:09.200Z,101355.19
2022-09-23T00:19:41.341Z,101355.19
2022-09-23T00:22:09.760Z,101355.50
2022-09-23T00:24:37.949Z,101359.16
2022-09-23T00:27:06.628Z,101357.09
2022-09-23T00:29:35.032Z,101362.75
2022-09-23T00:32:04.000Z,101361.22
2022-09-23T00:34:32.899Z,101355.69
2022-09-23T00:37:02.511Z,101355.00
2022-09-23T00:39:30.741Z,101355.28
2022-09-23T00:41:59.076Z,101362.66
2022-09-23T00:44:45.969Z,101359.59
2022-09-23T00:47:19.360Z,101359.75
2022-09-23T00:49:51.085Z,101360.03
2022-09-23T00:52:24.528Z,101355.91
2022-09-23T00:54:56.457Z,101361.72
2022-09-23T00:57:25.825Z,101360.19
2022-09-23T00:59:54.261Z,101361.03
2022-09-23T01:02:22.710Z,101371.78
2022-09-23T01:04:52.089Z,101365.00
2022-09-23T01:07:21.956Z,101367.97
2022-09-23T01:09:51.078Z,101363.06
2022-09-23T01:12:59.700Z,101354.47
2022-09-23T01:15:38.861Z,101356.75
2022-09-23T01:18:14.888Z,101363.09
2022-09-23T01:20:59.397Z,101356.19
2022-09-23T01:23:55.460Z,101356.63
2022-09-23T01:26:43.865Z,101362.13
2022-09-23T01:29:35.417Z,101362.56
2022-09-23T01:32:14.318Z,101363.97
2022-09-23T01:34:51.596Z,101361.28
2022-09-23T01:37:28.765Z,101356.63
2022-09-23T01:40:05.197Z,101353.09
2022-09-23T01:42:40.776Z,101359.44
2022-09-23T01:45:16.259Z,101359.75
2022-09-23T01:47:52.470Z,101358.03
2022-09-23T01:50:41.865Z,101358.19
2022-09-23T01:53:16.721Z,101354.44
2022-09-23T01:55:50.142Z,101354.72
2022-09-23T01:58:24.486Z,101314.09
2022-09-23T02:00:59.517Z,101360.63
2022-09-23T02:03:32.495Z,101343.56
2022-09-23T02:06:05.512Z,101356.41
2022-09-23T02:08:36.839Z,101352.72
2022-09-23T02:11:08.808Z,101357.94
2022-09-23T02:13:42.298Z,101297.75
2022-09-23T02:16:17.493Z,101323.25
2022-09-23T02:18:53.007Z,101358.09
2022-09-23T02:21:25.201Z,101349.06
2022-09-23T02:23:59.837Z,101325.34
2022-09-23T02:26:34.946Z,101352.72
2022-09-23T02:29:10.708Z,101351.31
2022-09-23T02:31:43.723Z,101357.53
2022-09-23T02:34:22.063Z,101347.38
2022-09-23T02:37:01.205Z,101356.97
2022-09-23T02:39:38.235Z,101350.59
2022-09-23T02:42:10.769Z,101348.91
2022-09-23T02:44:39.172Z,101350.75
2022-09-23T02:47:08.028Z,101355.28
2022-09-23T02:49:37.776Z,101350.19
2022-09-23T02:52:07.843Z,101352.03
2022-09-23T02:54:36.354Z,101354.28
2022-09-23T02:57:07.569Z,101347.78
2022-09-23T02:59:38.129Z,101344.06
2022-09-23T03:02:26.723Z,101352.69
2022-09-23T03:05:06.604Z,101347.31
2022-09-23T03:07:45.183Z,101345.63
2022-09-23T03:10:20.345Z,101333.81
2022-09-23T03:12:58.688Z,101329.97
2022-09-23T03:15:36.705Z,101350.56
2022-09-23T03:18:14.608Z,101348.16
2022-09-23T03:20:51.141Z,101317.31
2022-09-23T03:23:25.304Z,101354.13
2022-09-23T03:25:56.753Z,101356.97
2022-09-23T03:28:27.905Z,101358.81
2022-09-23T03:30:57.680Z,101356.13
2022-09-23T03:33:29.118Z,101348.78
2022-09-23T03:36:22.001Z,101346.59
2022-09-23T03:38:53.281Z,101351.13
2022-09-23T03:41:29.005Z,101339.59
2022-09-23T03:43:59.038Z,101354.38
2022-09-23T03:46:30.279Z,101358.03
2022-09-23T03:49:05.530Z,101361.19
2022-09-23T03:51:35.255Z,101364.56
2022-09-23T03:54:03.666Z,101356.22
2022-09-23T03:56:31.977Z,101358.91
2022-09-23T03:59:00.169Z,101360.44
2022-09-23T04:01:29.974Z,101361.44
2022-09-23T04:04:00.175Z,101359.59
2022-09-23T04:06:28.445Z,101363.72
2022-09-23T04:08:58.464Z,101363.31
2022-09-23T04:11:26.707Z,101363.47
2022-09-23T04:13:56.173Z,101366.72
2022-09-23T04:16:24.711Z,101360.78
2022-09-23T04:18:53.055Z,101365.44
2022-09-23T04:21:21.354Z,101364.31
2022-09-23T04:23:49.863Z,101371.22
2022-09-23T04:26:20.292Z,101369.06
2022-09-23T04:28:48.540Z,101373.31
2022-09-23T04:31:16.927Z,101382.06
2022-09-23T04:33:45.207Z,101371.03
2022-09-23T04:36:13.471Z,101377.09
2022-09-23T04:38:44.243Z,101380.06
2022-09-23T04:41:12.746Z,101385.69
2022-09-23T04:43:42.660Z,101387.06
2022-09-23T04:46:13.042Z,101383.38
2022-09-23T04:48:42.657Z,101391.84
2022-09-23T04:51:12.843Z,101385.34
2022-09-23T04:53:43.963Z,101384.50
2022-09-23T04:56:15.015Z,101392.25
2022-09-23T04:58:45.653Z,101390.28
2022-09-23T05:01:16.314Z,101356.53
2022-09-23T05:03:45.777Z,101382.91
2022-09-23T05:06:16.058Z,101375.72
2022-09-23T05:08:49.527Z,101376.84
2022-09-23T05:11:18.874Z,101382.78
2022-09-23T05:13:49.225Z,101388.16
2022-09-23T05:16:17.954Z,101394.81
2022-09-23T05:18:47.329Z,101395.94
2022-09-23T05:21:17.196Z,101397.63
2022-09-23T05:23:50.036Z,101408.22
2022-09-23T05:26:18.319Z,101404.41
2022-09-23T05:28:46.487Z,101400.03
2022-09-23T05:31:20.287Z,101402.41
2022-09-23T05:33:51.926Z,101400.03
2022-09-23T05:36:21.374Z,101403.84
2022-09-23T05:38:50.939Z,101399.63
2022-09-23T05:41:23.113Z,101403.00
2022-09-23T05:43:52.004Z,101405.53
2022-09-23T05:46:24.521Z,101402.00
2022-09-23T05:48:53.012Z,101402.31
2022-09-23T05:51:22.609Z,101410.50
2022-09-23T05:53:54.123Z,101409.81
2022-09-23T05:56:24.269Z,101407.97
2022-09-23T05:58:55.771Z,101402.19
2022-09-23T06:01:28.398Z,101409.09
2022-09-23T06:03:58.376Z,101405.28
2022-09-23T06:06:30.653Z,101410.50
2022-09-23T06:09:00.312Z,101406.69
2022-09-23T06:11:31.416Z,101415.44
2022-09-23T06:14:02.321Z,101419.81
2022-09-23T06:16:33.800Z,101427.47
2022-09-23T06:19:06.332Z,101424.06
2022-09-23T06:21:36.646Z,101424.13
2022-09-23T06:24:06.417Z,101428.63
2022-09-23T06:26:35.512Z,101427.06
2022-09-23T06:29:09.605Z,101421.59
2022-09-23T06:31:41.246Z,101417.47
2022-09-23T06:34:13.249Z,101406.56
2022-09-23T06:36:44.907Z,101428.56
2022-09-23T06:39:14.142Z,101411.06
2022-09-23T06:41:42.464Z,101431.88
2022-09-23T06:44:14.263Z,101433.66
2022-09-23T06:46:44.221Z,101437.09
2022-09-23T06:49:13.468Z,101426.34
2022-09-23T06:51:42.380Z,101429.91
2022-09-23T06:54:11.301Z,101438.59
2022-09-23T06:56:40.291Z,101438.75
2022-09-23T06:59:10.833Z,101435.00
2022-09-23T07:01:39.321Z,101424.69
2022-09-23T07:04:10.295Z,101425.97
2022-09-23T07:06:38.608Z,101431.97
2022-09-23T07:09:08.460Z,101442.53
2022-09-23T07:11:37.597Z,101436.88
2022-09-23T07:14:06.144Z,101438.28
2022-09-23T07:16:34.462Z,101439.66
2022-09-23T07:19:02.726Z,101436.66
2022-09-23T07:21:32.853Z,101427.94
2022-09-23T07:24:01.058Z,101437.69
2022-09-23T07:26:29.646Z,101433.50
2022-09-23T07:29:04.925Z,101442.91
2022-09-23T07:31:39.494Z,101441.88
2022-09-23T07:34:10.048Z,101442.00
2022-09-23T07:36:41.391Z,101445.03
2022-09-23T07:39:12.223Z,101447.22
2022-09-23T07:41:41.801Z,101438.91
2022-09-23T07:44:12.004Z,101433.13
2022-09-23T07:46:40.469Z,101439.97
2022-09-23T07:49:09.288Z,101432.50
2022-09-23T07:51:41.075Z,101426.03
2022-09-23T07:54:13.312Z,101411.16
2022-09-23T07:56:42.509Z,101433.00
2022-09-23T07:59:15.608Z,101437.19
2022-09-23T08:01:45.429Z,101434.56
2022-09-23T08:04:17.178Z,101401.16
2022-09-23T08:06:48.735Z,101436.59
2022-09-23T08:09:18.604Z,101440.19
2022-09-23T08:11:46.840Z,101448.72
2022-09-23T08:14:18.027Z,101447.78
2022-09-23T08:16:47.740Z,101447.72
2022-09-23T08:19:16.515Z,101445.19
2022-09-23T08:21:47.853Z,101453.56
2022-09-23T08:24:18.172Z,101448.06
2022-09-23T08:26:47.517Z,101451.13
2022-09-23T08:29:16.950Z,101452.38
2022-09-23T08:31:45.452Z,101453.53
2022-09-23T08:34:13.688Z,101463.84
2022-09-23T08:36:41.954Z,101463.31
2022-09-23T08:39:14.920Z,101460.72
2022-09-23T08:41:52.915Z,101458.91
2022-09-23T08:44:29.241Z,101469.75
2022-09-23T08:47:07.559Z,101455.97
2022-09-23T08:49:40.909Z,101467.28
2022-09-23T08:52:16.848Z,101465.34
2022-09-23T08:54:46.587Z,101469.09
2022-09-23T08:57:28.423Z,101462.16
2022-09-23T08:59:57.165Z,101460.69
2022-09-23T09:02:25.415Z,101459.25
2022-09-23T09:04:58.526Z,101455.75
2022-09-23T09:07:38.428Z,101456.59
2022-09-23T09:10:16.847Z,101457.38
2022-09-23T09:12:48.362Z,101456.84
2022-09-23T09:15:20.141Z,101451.34
2022-09-23T09:18:01.334Z,101442.59
2022-09-23T09:20:39.060Z,101444.44
2022-09-23T09:23:16.775Z,101448.66
2022-09-23T09:25:50.591Z,101440.75
2022-09-23T09:28:23.259Z,101444.38
2022-09-23T09:30:56.071Z,101446.03
2022-09-23T09:33:31.024Z,101443.78
2022-09-23T09:36:30.840Z,101440.91
2022-09-23T09:38:59.850Z,101436.31
2022-09-23T09:41:31.653Z,101433.88
2022-09-23T09:44:03.562Z,101444.16
2022-09-23T09:46:47.174Z,101437.28
2022-09-23T09:49:23.949Z,101445.72
2022-09-23T09:52:13.500Z,101441.16
2022-09-23T09:54:41.880Z,101442.03
2022-09-23T09:57:19.763Z,101440.59
2022-09-23T09:59:48.076Z,101429.91
2022-09-23T10:02:27.706Z,101437.47
2022-09-23T10:05:00.317Z,101431.63
2022-09-23T10:07:30.825Z,101396.78
2022-09-23T10:10:21.844Z,101420.34
2022-09-23T10:12:51.034Z,101428.72
2022-09-23T10:15:31.421Z,101428.75
2022-09-23T10:18:01.317Z,101432.56
2022-09-23T10:20:38.256Z,101427.75
2022-09-23T10:23:15.547Z,101431.31
2022-09-23T10:25:44.157Z,101322.47
2022-09-23T10:28:58.510Z,101429.44
2022-09-23T10:31:32.172Z,101416.84
2022-09-23T10:34:01.985Z,101312.84
2022-09-23T10:36:31.809Z,101413.91
2022-09-23T10:39:17.597Z,101417.91
2022-09-23T10:42:14.600Z,101414.31
2022-09-23T10:45:17.453Z,101404.25
2022-09-23T10:47:58.984Z,101365.06
2022-09-23T10:50:37.361Z,101392.53
2022-09-23T10:53:13.090Z,101393.59
2022-09-23T10:55:57.535Z,101395.66
2022-09-23T10:58:50.629Z,101391.47
2022-09-23T11:01:32.357Z,101395.47
2022-09-23T11:04:46.491Z,101390.25
2022-09-23T11:07:24.203Z,101347.66
2022-09-23T11:10:35.410Z,101389.38
2022-09-23T11:13:15.441Z,101384.53
2022-09-23T11:15:58.080Z,101386.41
2022-09-23T11:18:49.857Z,101380.78
2022-09-23T11:21:46.712Z,101382.84
2022-09-23T11:24:40.972Z,101379.03
2022-09-23T11:27:17.416Z,101382.56
2022-09-23T11:30:02.840Z,101385.69
2022-09-23T11:32:53.695Z,101376.69
2022-09-23T11:35:25.755Z,101370.59
2022-09-23T11:37:59.999Z,101368.91
2022-09-23T11:40:33.715Z,101369.56
2022-09-23T11:43:08.428Z,101375.41
2022-09-23T11:45:43.765Z,101375.16
2022-09-23T11:48:17.449Z,101377.66
2022-09-23T11:50:49.358Z,101366.81
2022-09-23T11:53:24.768Z,101358.19
2022-09-23T11:56:01.031Z,101347.09
2022-09-23T11:58:32.832Z,101337.22
2022-09-23T12:01:07.231Z,101341.25
2022-09-23T12:03:48.350Z,101328.44
2022-09-23T12:06:21.194Z,101324.31
2022-09-23T12:08:57.664Z,101316.75
2022-09-23T12:11:34.794Z,101317.78
2022-09-23T12:14:15.710Z,101328.06
2022-09-23T12:17:16.418Z,101324.72
2022-09-23T12:20:01.411Z,101318.34
2022-09-23T12:22:48.454Z,101306.59
2022-09-23T12:25:46.533Z,101318.94
2022-09-23T12:28:20.849Z,101309.84
2022-09-23T12:30:51.162Z,101312.78
2022-09-23T12:33:24.967Z,101319.50
2022-09-23T12:35:55.480Z,101326.44
2022-09-23T12:38:26.774Z,101310.53
2022-09-23T12:40:57.738Z,101311.72
2022-09-23T12:43:31.357Z,101302.41
2022-09-23T12:46:20.023Z,101297.94
2022-09-23T12:48:59.480Z,101292.25
2022-09-23T12:51:29.168Z,101289.88
2022-09-23T12:54:25.235Z,101282.94
2022-09-23T12:57:06.630Z,101292.41
2022-09-23T12:59:57.328Z,101281.72
2022-09-23T13:02:36.003Z,101280.91
2022-09-23T13:05:32.779Z,101279.94
2022-09-23T13:08:06.372Z,101258.69
2022-09-23T13:10:42.605Z,101271.81
2022-09-23T13:13:21.506Z,101270.56
2022-09-23T13:15:50.169Z,101262.72
2022-09-23T13:18:26.362Z,101261.38
2022-09-23T13:20:57.086Z,101269.81
2022-09-23T13:23:27.119Z,101276.34
2022-09-23T13:25:57.553Z,101244.72
2022-09-23T13:28:34.539Z,101239.66
2022-09-23T13:31:07.084Z,101267.13
2022-09-23T13:33:47.335Z,101278.72
2022-09-23T13:36:17.117Z,101275.41
2022-09-23T13:38:46.930Z,101267.84
2022-09-23T13:41:19.076Z,101266.66
2022-09-23T13:43:51.311Z,101182.75
2022-09-23T13:46:22.508Z,101262.91
2022-09-23T13:48:55.376Z,101251.16
2022-09-23T13:51:27.537Z,101199.72
2022-09-23T13:53:56.903Z,101252.91
2022-09-23T13:56:28.244Z,101246.66
2022-09-23T13:59:20.741Z,101239.09
2022-09-23T14:01:50.100Z,101237.00
2022-09-23T14:04:25.494Z,101240.31
2022-09-23T14:06:54.551Z,101225.84
2022-09-23T14:09:30.306Z,101177.66
2022-09-23T14:12:01.242Z,101214.31
2022-09-23T14:14:31.855Z,101213.69
2022-09-23T14:17:00.609Z,101220.41
2022-09-23T14:19:28.817Z,101223.13
2022-09-23T14:21:57.573Z,101221.81
2022-09-23T14:24:32.961Z,101218.03
2022-09-23T14:27:05.441Z,101094.00
2022-09-23T14:29:38.719Z,101214.75
2022-09-23T14:32:13.118Z,101207.63
2022-09-23T14:34:46.813Z,101191.06
2022-09-23T14:37:43.375Z,101214.13
2022-09-23T14:40:16.433Z,101216.44
2022-09-23T14:42:47.724Z,101215.19
2022-09-23T14:45:21.910Z,101206.41
2022-09-23T14:47:52.510Z,101194.72
2022-09-23T14:50:39.717Z,101196.41
2022-09-23T14:53:32.346Z,101195.59
2022-09-23T14:56:12.710Z,101192.25
2022-09-23T14:58:51.977Z,101186.81
2022-09-23T15:01:35.849Z,101165.88
2022-09-23T15:04:32.483Z,101169.81
2022-09-23T15:07:05.498Z,101168.41
2022-09-23T15:09:37.462Z,101161.91
2022-09-23T15:12:09.621Z,101151.44
2022-09-23T15:14:42.041Z,101098.25
2022-09-23T15:17:32.651Z,101132.16
2022-09-23T15:20:03.365Z,101135.75
2022-09-23T15:22:31.652Z,101138.25
2022-09-23T15:25:15.981Z,101115.63
2022-09-23T15:27:57.738Z,101125.69
2022-09-23T15:30:26.384Z,101138.28
2022-09-23T15:32:56.041Z,101138.72
2022-09-23T15:35:26.888Z,101136.19
2022-09-23T15:37:58.982Z,101136.41
2022-09-23T15:40:30.495Z,101141.22
2022-09-23T15:43:00.770Z,101145.84
2022-09-23T15:45:35.169Z,101141.66
2022-09-23T15:48:09.019Z,101140.19
2022-09-23T15:50:38.251Z,101110.28
2022-09-23T15:53:07.171Z,101121.59
2022-09-23T15:55:36.656Z,101130.19
2022-09-23T15:58:04.884Z,101122.22
2022-09-23T16:00:34.854Z,101127.88
2022-09-23T16:03:06.748Z,101136.06
2022-09-23T16:05:37.969Z,101127.91
2022-09-23T16:08:09.227Z,101127.50
2022-09-23T16:10:38.430Z,101130.63
2022-09-23T16:13:09.125Z,101105.69
2022-09-23T16:15:39.185Z,101117.41
2022-09-23T16:18:09.420Z,101124.09
2022-09-23T16:20:39.646Z,101094.81
2022-09-23T16:23:10.033Z,101082.88
2022-09-23T16:25:38.880Z,101130.41
2022-09-23T16:28:07.205Z,101118.03
2022-09-23T16:30:35.845Z,101104.00
2022-09-23T16:33:04.081Z,101119.50
2022-09-23T16:35:34.787Z,101114.47
2022-09-23T16:38:03.100Z,101113.22
2022-09-23T16:40:32.095Z,101104.63
2022-09-23T16:43:02.289Z,101093.97
2022-09-23T16:45:31.375Z,101096.47
2022-09-23T16:48:00.683Z,101089.13
2022-09-23T16:50:29.686Z,101088.72
2022-09-23T16:52:59.365Z,101088.28
2022-09-23T16:55:27.630Z,101087.03
2022-09-23T16:57:56.578Z,101094.13
2022-09-23T17:00:42.451Z,101099.38
2022-09-23T17:03:31.146Z,101111.94
2022-09-23T17:06:02.367Z,101101.88
2022-09-23T17:08:34.743Z,101099.16
2022-09-23T17:11:03.190Z,101107.31
2022-09-23T17:13:32.533Z,101107.09
2022-09-23T17:16:00.863Z,101098.03
2022-09-23T17:18:29.799Z,101098.44
2022-09-23T17:21:00.071Z,101119.75
2022-09-23T17:23:29.081Z,101121.88
2022-09-23T17:25:59.073Z,101116.19
2022-09-23T17:28:27.402Z,101124.78
2022-09-23T17:30:58.907Z,101119.75
2022-09-23T17:33:28.366Z,101123.91
2022-09-23T17:35:57.258Z,101120.56
2022-09-23T17:38:29.184Z,101132.88
2022-09-23T17:41:02.184Z,101123.44
2022-09-23T17:43:31.601Z,101132.41
2022-09-23T17:46:05.338Z,101134.91
2022-09-23T17:48:35.024Z,101132.19
2022-09-23T17:51:05.144Z,101136.16
2022-09-23T17:53:35.670Z,101135.94
2022-09-23T17:56:08.503Z,101129.63
2022-09-23T17:58:38.260Z,101124.13
2022-09-23T18:01:09.708Z,101124.56
2022-09-23T18:03:38.136Z,101126.44
2022-09-23T18:06:11.753Z,101123.72
2022-09-23T18:08:41.391Z,101125.13
2022-09-23T18:11:15.805Z,101126.56
2022-09-23T18:13:44.614Z,101139.88
2022-09-23T18:16:12.883Z,101138.66
2022-09-23T18:18:41.260Z,101137.81
2022-09-23T18:21:10.544Z,101142.41
2022-09-23T18:23:38.914Z,101137.75
2022-09-23T18:26:16.644Z,101123.28
2022-09-23T18:28:45.593Z,101127.19
2022-09-23T18:31:13.842Z,101128.63
2022-09-23T18:33:43.468Z,101123.00
2022-09-23T18:36:12.665Z,101125.53
2022-09-23T18:38:41.005Z,101126.56
2022-09-23T18:41:09.416Z,101118.16
2022-09-23T18:43:42.235Z,101120.81
2022-09-23T18:46:14.263Z,101118.91
2022-09-23T18:49:00.558Z,101111.19
2022-09-23T18:51:30.763Z,101117.38
2022-09-23T18:54:00.482Z,101115.44
2022-09-23T18:56:33.635Z,101125.66
2022-09-23T18:59:03.574Z,101146.25
2022-09-23T19:01:31.924Z,101142.38
2022-09-23T19:04:02.478Z,101146.91
2022-09-23T19:06:33.089Z,101151.03
2022-09-23T19:09:02.314Z,101145.78
2022-09-23T19:11:31.213Z,101148.97
2022-09-23T19:14:02.050Z,101126.31
2022-09-23T19:16:32.296Z,101137.72
2022-09-23T19:19:01.181Z,101136.44
2022-09-23T19:21:30.124Z,101138.91
2022-09-23T19:24:03.441Z,101129.09
2022-09-23T19:26:34.308Z,101138.66
2022-09-23T19:29:04.464Z,101136.97
2022-09-23T19:31:36.145Z,101136.72
2022-09-23T19:34:10.233Z,101129.31
2022-09-23T19:36:40.657Z,101097.63
2022-09-23T19:39:13.390Z,101059.59
2022-09-23T19:41:41.855Z,101126.28
2022-09-23T19:44:12.085Z,101124.81
2022-09-23T19:46:45.352Z,101126.22
2022-09-23T19:49:14.174Z,101129.13
2022-09-23T19:51:44.261Z,101119.50
2022-09-23T19:54:13.197Z,101120.91
2022-09-23T19:56:41.502Z,101113.16
2022-09-23T19:59:09.988Z,101108.50
2022-09-23T20:01:38.962Z,101114.13
2022-09-23T20:04:08.946Z,101111.22
2022-09-23T20:06:38.391Z,101108.06
2022-09-23T20:09:06.936Z,101107.78
2022-09-23T20:11:35.389Z,101089.97
2022-09-23T20:14:06.445Z,101091.75
2022-09-23T20:16:38.178Z,101101.50
2022-09-23T20:19:08.145Z,101105.06
2022-09-23T20:21:36.664Z,101104.88
2022-09-23T20:24:07.095Z,101016.78
2022-09-23T20:26:53.301Z,101089.09
2022-09-23T20:29:21.536Z,101060.06
2022-09-23T20:31:50.049Z,101088.63
2022-09-23T20:34:21.266Z,101088.22
2022-09-23T20:36:49.710Z,101094.41
2022-09-23T20:39:17.914Z,101068.75
2022-09-23T20:41:48.189Z,101077.41
2022-09-23T20:44:17.500Z,101072.56
2022-09-23T20:46:48.909Z,101070.22
2022-09-23T20:49:17.906Z,101071.25
2022-09-23T20:51:48.954Z,101065.00
2022-09-23T20:54:19.288Z,101064.34
2022-09-23T20:56:47.778Z,101056.06
2022-09-23T20:59:17.854Z,101063.50
2022-09-23T21:01:47.804Z,101057.53
2022-09-23T21:04:16.583Z,101046.91
2022-09-23T21:06:44.885Z,101043.72
2022-09-23T21:09:14.563Z,101041.03
2022-09-23T21:11:42.842Z,101048.31
2022-09-23T21:14:11.100Z,101035.63
2022-09-23T21:16:40.232Z,101033.75
2022-09-23T21:19:08.742Z,101037.47
2022-09-23T21:21:37.632Z,100972.78
2022-09-23T21:24:36.098Z,100912.53
2022-09-23T21:26:57.682Z,101022.22
2022-09-23T21:29:25.899Z,101021.19
2022-09-23T21:31:54.146Z,100981.16
2022-09-23T21:34:23.534Z,101013.72
2022-09-23T21:36:51.873Z,101008.03
2022-09-23T21:39:20.364Z,100996.75
2022-09-23T21:41:48.616Z,101010.25
2022-09-23T21:44:18.368Z,101010.91
2022-09-23T21:46:46.756Z,101015.13
2022-09-23T21:49:15.576Z,101010.53
2022-09-23T21:51:43.921Z,101017.63
2022-09-23T21:54:15.759Z,101005.78
2022-09-23T21:56:45.419Z,100992.34
2022-09-23T21:59:13.689Z,100997.38
2022-09-23T22:01:45.061Z,100994.03
2022-09-23T22:04:17.202Z,100989.53
2022-09-23T22:06:46.858Z,100990.09
2022-09-23T22:09:17.197Z,100991.31
2022-09-23T22:12:03.019Z,100995.91
2022-09-23T22:14:31.399Z,101001.69
2022-09-23T22:17:03.788Z,100998.81
2022-09-23T22:19:35.321Z,100978.66
2022-09-23T22:22:08.209Z,100973.59
2022-09-23T22:24:36.538Z,100848.16
2022-09-23T22:27:04.958Z,100956.59
2022-09-23T22:29:50.838Z,100959.38
2022-09-23T22:32:38.267Z,100921.13
2022-09-23T22:35:07.565Z,100947.16
2022-09-23T22:37:37.313Z,100944.63
2022-09-23T22:40:07.722Z,100945.84
2022-09-23T22:42:36.565Z,100944.34
2022-09-23T22:45:06.394Z,100951.81
2022-09-23T22:47:37.730Z,100945.28
2022-09-23T22:50:06.479Z,100955.59
2022-09-23T22:52:34.964Z,100938.78
2022-09-23T22:55:03.783Z,100942.50
2022-09-23T22:57:32.407Z,100948.63
2022-09-23T23:00:00.889Z,100937.91
2022-09-23T23:02:29.105Z,100935.56
2022-09-23T23:05:00.535Z,100925.97
2022-09-23T23:07:28.808Z,100924.63
2022-09-23T23:09:57.053Z,100931.88
2022-09-23T23:12:25.347Z,100930.84
2022-09-23T23:14:53.564Z,100921.97
2022-09-23T23:17:22.022Z,100932.41
2022-09-23T23:19:50.960Z,100941.34
2022-09-23T23:22:20.627Z,100938.28
2022-09-23T23:24:48.898Z,100956.03
2022-09-23T23:27:17.201Z,100973.16
2022-09-23T23:29:46.391Z,100955.94
2022-09-23T23:32:15.734Z,100967.75
2022-09-23T23:34:43.946Z,100961.88
2022-09-23T23:37:12.238Z,100954.81
2022-09-23T23:39:41.981Z,100950.63
2022-09-23T23:42:10.245Z,100946.59
2022-09-23T23:44:38.594Z,100944.47
2022-09-23T23:47:06.936Z,100937.06
2022-09-23T23:49:35.213Z,100934.53
2022-09-23T23:52:03.805Z,100923.41
2022-09-23T23:54:33.021Z,100928.28
2022-09-23T23:57:02.684Z,100930.75
2022-09-23T23:59:31.088Z,100929.47
